Aleknagik, Alaska
Current Conditions -  °F | °C
As of 7:16 AM on Thursday 27 Nov 2014 (Local Time) from PADL Reporting Station
Overcast Overcast  
Wind Chill: -5°   Ceiling: 500
Heat Index: -1°   Visibility: 10mi
Dew Point: -1°   Wind: 7mph
Humidity: 100%   Direction: 20°NNE
Pressure: 30.15"   Gusts: NA
Location:  59.27°N, 158.62°W
Report Text: PADL 271616Z 02006KT 10SM OVC005 M01/M01 A3015 RMK AO1
Loading
Personal Weather Stations






























Interactive Weather Map New forecast layout! Learn more

10-Day Weather Forecast

Advertisements
Track Severe Weather on mobile